Detalii statie TARCEA AGRO TARCEA [0000197E]

Toti senzorii

Date Temperatura solului [C]Precipitatii [mm]Voltaj baterie [mV]Leaf Wetness [Min]HC Air temperature [C]HC Relative humidity [%]Punctul de roua [C]
medieminmaxsumaultimatimpmedieminmaxmediemediemin
2018-12-09 15:00:00 3.5 3.4 3.7 0 6992 7.96 7.24 8.54 77.23 4 3.6
2018-12-09 16:00:00 3.7 3.5 3.8 0 6914 7.1 6.9 7.27 80.67 3.9 3.8
2018-12-09 17:00:00 3.8 3.8 4 0.6 6904 6.77 6.55 7.01 81.07 3.6 3.5
2018-12-09 18:00:00 3.9 3.9 4 0 6864 6.4 6.17 6.64 84.68 3.8 3.4
2018-12-09 19:00:00 3.9 3.9 4 0 6854 6.13 5.95 6.25 89.75 4.4 4.4
2018-12-09 20:00:00 3.9 3.9 4 0 6834 6 5.83 6.34 92.28 4.7 4.3
2018-12-09 21:00:00 3.9 3.8 4 0 6816 5.89 5.67 6.1 92.26 4.6 4.5
2018-12-09 22:00:00 3.9 3.8 4 0 6816 5.8 5.7 5.87 92.68 4.6 4.4
2018-12-09 23:00:00 3.9 3.9 4 0 6796 5.71 5.57 5.86 94.13 4.7 4.6
2018-12-10 00:00:00 3.9 3.9 4 0 6796 5.45 5.2 5.64 95.08 4.6 4.4
2018-12-10 01:00:00 3.9 3.9 4 0 6786 5.11 4.86 5.26 97.9 4.7 4.4
2018-12-10 02:00:00 3.8 3.8 3.9 0 6796 4.95 4.59 5.23 98.42 4.6 4.5
2018-12-10 03:00:00 3.7 3.6 3.9 0 6786 4.51 4.4 4.67 99.97 4.4 4.4
2018-12-10 04:00:00 3.7 3.6 3.9 0 6776 4.66 4.47 4.87 100 4.6 4.4
2018-12-10 05:00:00 3.7 3.4 4 0 6786 4.64 4.41 4.88 100 4.6 4.4
2018-12-10 06:00:00 3.7 3.7 3.8 0 6786 4.52 4.36 4.63 100 4.4 4.3
2018-12-10 07:00:00 3.6 3.6 3.8 0 6786 3.9 3.53 4.18 100 3.8 3.5
2018-12-10 08:00:00 3.6 3.5 3.7 0 6776 3.58 3.32 3.9 100 3.5 3.3
2018-12-10 09:00:00 3.5 3.4 3.6 0.2 6796 3.89 3.28 4.56 100 3.8 3.2
2018-12-10 10:00:00 3.5 3.4 3.7 0 6816 4.4 4.3 4.52 100 4.3 4.3
2018-12-10 11:00:00 3.5 3.4 3.6 0 6844 4.66 4.45 4.91 100 4.6 4.4
2018-12-10 12:00:00 3.7 3.5 3.9 0 6854 5.11 4.82 5.48 100 5 4.8
2018-12-10 13:00:00 3.9 3.8 4.1 0.4 6816 5.45 5.31 5.58 100 5.4 5.3
2018-12-10 14:00:00 4 3.9 4.2 0 6834 5.58 5.45 5.76 100 5.5 5.4
2018-12-10 15:00:00 4.1 4 4.3 0 6854 5.76 5.64 5.84 100 5.7 5.6